Time;durP1;ratioP1;P1;durP2;ratioP2;P2;SDS_P1;SDS_P2;PMS_P1;PMS_P2;Temp;Humidity;BMP_temperature;BMP_pressure;BME280_temperature;BME280_humidity;BME280_pressure;Samples;Min_cycle;Max_cycle;Signal;HPM_P1;HPM_P2
2022/08/02 00:01:08;;;;;;;7.80;6.33;;;;;;;19.24;89.31;96644.41;1687624;84;21019;-88
2022/08/02 00:03:33;;;;;;;6.78;5.65;;;;;;;19.25;89.20;96647.33;1689178;85;21422;-89
2022/08/02 00:06:00;;;;;;;6.97;6.28;;;;;;;19.28;89.16;96644.75;1707593;83;21020;-87
2022/08/02 00:08:25;;;;;;;6.75;6.00;;;;;;;19.30;89.14;96642.16;1691471;83;21093;-90
2022/08/02 00:10:51;;;;;;;6.45;5.95;;;;;;;19.35;89.04;96643.58;1695206;83;20983;-86
2022/08/02 00:13:17;;;;;;;6.85;5.72;;;;;;;19.35;88.83;96642.78;1681461;83;21035;-90
2022/08/02 00:15:42;;;;;;;6.35;5.80;;;;;;;19.35;88.72;96638.31;1676111;84;21398;-90
2022/08/02 00:18:08;;;;;;;7.83;6.85;;;;;;;19.34;88.62;96639.34;1691228;83;21003;-88
2022/08/02 00:20:34;;;;;;;7.28;6.03;;;;;;;19.28;88.37;96639.48;1690383;84;21032;-89
2022/08/02 00:22:59;;;;;;;5.83;5.35;;;;;;;19.21;88.53;96637.48;1687010;83;21342;-90
2022/08/02 00:25:26;;;;;;;6.55;5.92;;;;;;;19.16;88.55;96641.59;1690485;84;21079;-88
2022/08/02 00:27:52;;;;;;;6.62;6.03;;;;;;;19.15;88.69;96646.58;1686620;83;21398;-89
2022/08/02 00:30:19;;;;;;;7.05;6.35;;;;;;;19.13;88.74;96642.05;1684994;85;21790;-89
2022/08/02 00:32:45;;;;;;;6.35;5.80;;;;;;;19.10;88.72;96641.20;1685367;84;21089;-90
2022/08/02 00:35:11;;;;;;;6.53;5.92;;;;;;;19.08;88.72;96643.78;1686117;83;21059;-90
2022/08/02 00:37:40;;;;;;;6.37;5.80;;;;;;;19.07;88.80;96646.94;1681284;84;21057;-89
2022/08/02 00:40:08;;;;;;;7.05;6.33;;;;;;;19.09;88.84;96649.34;1679416;85;20999;-89
2022/08/02 00:42:34;;;;;;;6.47;5.50;;;;;;;19.07;88.72;96656.15;1685105;84;21410;-85
2022/08/02 00:44:59;;;;;;;6.87;5.92;;;;;;;19.06;88.83;96651.91;1680558;84;21035;-86
2022/08/02 00:47:25;;;;;;;6.65;6.05;;;;;;;19.05;88.81;96654.78;1640064;87;21081;-87
2022/08/02 00:49:51;;;;;;;6.67;5.90;;;;;;;19.04;88.98;96652.66;1629452;86;20976;-86
2022/08/02 00:52:17;;;;;;;7.67;5.40;;;;;;;19.06;88.99;96662.45;1633576;87;21375;-89
2022/08/02 00:54:42;;;;;;;6.90;6.28;;;;;;;19.05;88.91;96660.84;1629794;86;21027;-88
2022/08/02 00:57:08;;;;;;;6.65;6.05;;;;;;;19.03;89.01;96662.08;1626483;86;21137;-89
2022/08/02 00:59:34;;;;;;;8.20;6.15;;;;;;;18.97;88.92;96667.75;1680041;83;20948;-88
2022/08/02 01:02:00;;;;;;;7.50;5.87;;;;;;;18.96;89.18;96658.25;1682960;83;20984;-87
2022/08/02 01:04:25;;;;;;;7.30;6.58;;;;;;;18.98;89.19;96653.55;1682939;84;21073;-86
2022/08/02 01:06:51;;;;;;;8.23;6.47;;;;;;;18.99;89.20;96655.16;1680377;83;20984;-85
2022/08/02 01:09:17;;;;;;;7.75;6.83;;;;;;;19.00;89.11;96659.91;1700066;84;21379;-88
2022/08/02 01:11:43;;;;;;;7.45;6.72;;;;;;;18.97;89.20;96659.05;1691287;83;21013;-86
2022/08/02 01:14:12;;;;;;;8.28;6.95;;;;;;;18.97;89.49;96659.85;1684439;84;21008;-90
2022/08/02 01:16:46;;;;;;;8.53;6.80;;;;;;;18.95;89.35;96659.28;1685495;83;21033;-88
2022/08/02 01:19:39;;;;;;;6.72;6.12;;;;;;;18.95;89.34;96662.43;1697136;83;21056;-88
2022/08/02 01:22:30;;;;;;;7.17;5.58;;;;;;;18.79;89.46;96638.89;1680068;83;21038;-90
2022/08/02 01:25:34;;;;;;;6.00;5.50;;;;;;;18.94;89.44;96659.00;1684225;83;21423;-90
2022/08/02 01:28:36;;;;;;;6.05;5.47;;;;;;;18.91;89.51;96668.67;1681012;84;21570;-89
2022/08/02 01:31:31;;;;;;;7.62;6.33;;;;;;;18.91;89.62;96667.87;1641097;85;22041;-90
2022/08/02 01:34:25;;;;;;;8.80;7.90;;;;;;;18.89;89.80;96663.64;1692515;83;21356;-89
2022/08/02 01:37:02;;;;;;;10.15;9.15;;;;;;;18.84;89.93;96670.59;1713092;84;21155;-89
2022/08/02 01:39:30;;;;;;;11.68;9.50;;;;;;;18.80;90.03;96672.08;1682378;84;21010;-88
2022/08/02 01:41:56;;;;;;;10.32;9.23;;;;;;;18.79;90.20;96672.59;1682450;84;20994;-86
2022/08/02 01:44:21;;;;;;;11.25;10.15;;;;;;;18.79;90.39;96669.16;1696851;83;20952;-89
2022/08/02 01:46:47;;;;;;;12.05;10.15;;;;;;;18.77;90.44;96669.91;1693102;83;21513;-89
2022/08/02 01:49:16;;;;;;;9.93;8.65;;;;;;;18.80;90.79;96674.20;1683496;84;21452;-88
2022/08/02 01:54:31;;;;;;;11.88;10.15;;;;;;;18.84;90.69;96675.34;1677548;84;21031;-86
2022/08/02 01:56:56;;;;;;;11.73;10.53;;;;;;;18.80;90.63;96678.66;1673032;84;21015;-90
2022/08/02 01:59:22;;;;;;;11.57;10.38;;;;;;;18.75;90.75;96675.91;1681834;84;21371;-89
2022/08/02 02:01:50;;;;;;;11.45;10.10;;;;;;;18.75;90.84;96677.23;1688321;83;21019;-88
2022/08/02 02:04:16;;;;;;;10.72;9.08;;;;;;;18.74;90.79;96676.42;1683973;85;21367;-89
2022/08/02 02:06:43;;;;;;;10.48;9.28;;;;;;;18.74;90.87;96671.67;1689123;83;20964;-89
2022/08/02 02:09:09;;;;;;;9.35;8.35;;;;;;;18.75;90.97;96676.72;1686288;84;20976;-90
2022/08/02 02:11:35;;;;;;;9.50;8.23;;;;;;;18.79;91.01;96677.06;1683889;83;21104;-86
2022/08/02 02:14:01;;;;;;;8.35;7.47;;;;;;;18.77;90.95;96674.66;1685825;82;21039;-88
2022/08/02 02:16:27;;;;;;;8.38;7.58;;;;;;;18.80;91.00;96676.02;1683302;85;21006;-89
2022/08/02 02:18:53;;;;;;;9.48;7.83;;;;;;;18.85;90.93;96676.14;1683814;83;21058;-90
2022/08/02 02:21:19;;;;;;;8.38;7.42;;;;;;;18.80;90.95;96658.40;1674513;83;21358;-89
2022/08/02 02:23:45;;;;;;;8.23;7.42;;;;;;;18.92;90.96;96674.22;1678095;84;20999;-86
2022/08/02 02:26:13;;;;;;;8.60;7.80;;;;;;;18.90;90.73;96677.60;1685668;83;21070;-88
2022/08/02 02:28:38;;;;;;;9.43;8.28;;;;;;;18.89;90.75;96673.37;1681576;83;21447;-86
2022/08/02 02:31:08;;;;;;;9.55;8.43;;;;;;;18.88;90.79;96672.56;1683967;83;21030;-89
2022/08/02 02:33:50;;;;;;;9.70;8.75;;;;;;;18.85;90.76;96676.94;1683757;83;21175;-88
2022/08/02 02:36:18;;;;;;;10.10;9.03;;;;;;;18.86;90.91;96675.11;1680948;83;21096;-88
2022/08/02 02:38:44;;;;;;;9.53;8.53;;;;;;;18.84;91.04;96682.44;1685320;83;20967;-88
2022/08/02 02:41:09;;;;;;;9.90;9.00;;;;;;;18.86;91.13;96683.01;1683865;84;20936;-89
2022/08/02 02:43:35;;;;;;;10.25;8.68;;;;;;;18.86;91.01;96683.81;1662761;84;21035;-86
2022/08/02 02:46:02;;;;;;;10.18;9.20;;;;;;;18.85;90.99;96685.36;1692117;83;21411;-89
2022/08/02 02:48:28;;;;;;;9.33;8.43;;;;;;;18.86;91.03;96680.38;1673083;83;21060;-88
2022/08/02 02:50:54;;;;;;;8.30;7.60;;;;;;;18.87;91.07;96678.03;1701641;83;21342;-88
2022/08/02 02:53:20;;;;;;;9.43;8.53;;;;;;;18.91;91.13;96666.55;1684191;82;20994;-89
2022/08/02 02:55:46;;;;;;;8.65;7.85;;;;;;;18.94;91.00;96666.09;1671870;83;20984;-89
2022/08/02 02:58:12;;;;;;;9.20;8.38;;;;;;;18.87;91.08;96652.53;1697859;83;21383;-88
2022/08/02 03:03:21;;;;;;;8.18;7.37;;;;;;;19.04;90.89;96670.30;1683173;83;21084;-86
2022/08/02 03:05:47;;;;;;;7.78;7.12;;;;;;;19.03;90.64;96671.30;1675032;83;21032;-89
2022/08/02 03:08:13;;;;;;;9.05;7.67;;;;;;;19.02;90.78;96676.28;1665835;83;21040;-89
2022/08/02 03:10:39;;;;;;;9.05;8.15;;;;;;;19.01;90.91;96674.16;1672106;83;21047;-89
2022/08/02 03:13:05;;;;;;;9.15;8.25;;;;;;;18.99;90.69;96674.91;1643560;87;20996;-90
2022/08/02 03:15:30;;;;;;;8.10;7.30;;;;;;;18.98;90.60;96668.55;1642869;85;20970;-88
2022/08/02 03:17:56;;;;;;;8.00;7.10;;;;;;;18.99;90.53;96671.47;1628787;87;21547;-89
2022/08/02 03:20:22;;;;;;;7.75;7.05;;;;;;;18.97;90.32;96669.07;1624548;87;21024;-90
2022/08/02 03:22:49;;;;;;;8.68;7.87;;;;;;;18.95;90.48;96669.81;1618413;86;21389;-88
2022/08/02 03:25:15;;;;;;;8.33;7.53;;;;;;;18.93;90.57;96673.19;1633363;86;20969;-86
2022/08/02 03:27:43;;;;;;;7.72;6.90;;;;;;;18.85;90.63;96672.19;1633555;86;20992;-86
2022/08/02 03:30:10;;;;;;;7.67;7.03;;;;;;;18.86;90.86;96679.06;1635904;86;21036;-86
2022/08/02 03:32:37;;;;;;;8.30;7.50;;;;;;;18.85;90.88;96670.36;1636568;86;20972;-87
2022/08/02 03:35:06;;;;;;;9.23;7.92;;;;;;;18.87;90.93;96672.77;1650057;86;21031;-90
2022/08/02 03:37:32;;;;;;;8.70;7.30;;;;;;;18.87;91.10;96683.30;1637078;86;20993;-90
2022/08/02 03:39:58;;;;;;;8.03;7.22;;;;;;;18.84;91.07;96689.02;1633772;86;20980;-88
2022/08/02 03:42:25;;;;;;;9.38;8.48;;;;;;;18.84;91.07;96689.02;1634591;86;21029;-86
2022/08/02 03:44:51;;;;;;;9.05;8.15;;;;;;;18.85;91.12;96690.63;1629794;87;20937;-89
2022/08/02 03:47:17;;;;;;;9.93;8.93;;;;;;;18.79;91.01;96692.34;1631084;87;21055;-88
2022/08/02 03:49:43;;;;;;;9.70;8.85;;;;;;;18.79;91.28;96692.34;1637689;86;21027;-90
2022/08/02 03:52:09;;;;;;;9.03;8.13;;;;;;;18.77;91.20;96694.40;1636046;86;21375;-90
2022/08/02 03:54:35;;;;;;;9.83;8.88;;;;;;;18.81;91.45;96696.86;1631664;87;21017;-88
2022/08/02 03:57:00;;;;;;;9.40;8.50;;;;;;;18.87;91.53;96701.72;1634825;86;21072;-90
2022/08/02 03:59:26;;;;;;;10.98;8.70;;;;;;;18.88;91.49;96707.30;1634401;87;21008;-87
2022/08/02 04:01:52;;;;;;;9.60;8.70;;;;;;;18.89;91.67;96707.08;1634218;86;21302;-87
2022/08/02 04:04:17;;;;;;;10.68;8.08;;;;;;;18.93;91.67;96706.63;1634200;87;21363;-87
2022/08/02 04:06:43;;;;;;;9.18;8.28;;;;;;;18.93;91.73;96708.73;1632941;87;20981;-87
2022/08/02 04:09:09;;;;;;;9.80;8.85;;;;;;;18.96;91.94;96714.06;1634175;86;21005;-87
2022/08/02 04:11:36;;;;;;;8.75;7.85;;;;;;;18.96;91.81;96712.23;1634336;87;20980;-87
2022/08/02 04:14:07;;;;;;;10.10;9.10;;;;;;;18.95;92.14;96715.89;1634251;87;21331;-89
2022/08/02 04:16:38;;;;;;;10.18;9.10;;;;;;;18.86;92.20;96704.88;1641923;86;21019;-87
2022/08/02 04:19:06;;;;;;;9.48;8.58;;;;;;;18.87;91.99;96720.98;1647813;84;21064;-88
2022/08/02 04:21:34;;;;;;;10.32;9.33;;;;;;;18.84;92.24;96722.73;1634714;86;21018;-87
2022/08/02 04:24:00;;;;;;;10.63;8.78;;;;;;;18.81;92.07;96725.02;1640281;86;21000;-87
2022/08/02 04:26:25;;;;;;;9.80;8.80;;;;;;;18.82;92.59;96729.25;1636435;86;21020;-87
2022/08/02 04:28:51;;;;;;;12.13;10.82;;;;;;;18.84;92.67;96730.63;1634062;86;21036;-87
2022/08/02 04:31:17;;;;;;;11.22;10.13;;;;;;;18.86;92.59;96727.77;1657338;85;21116;-88
2022/08/02 04:33:43;;;;;;;10.80;9.80;;;;;;;18.85;92.79;96737.50;1657283;86;21015;-87
2022/08/02 04:36:09;;;;;;;10.90;9.93;;;;;;;18.85;92.79;96737.50;1631792;87;21414;-87
2022/08/02 04:38:35;;;;;;;10.70;9.70;;;;;;;18.93;92.86;96736.39;1694640;83;21020;-86
2022/08/02 04:41:01;;;;;;;10.20;9.28;;;;;;;18.91;92.62;96741.59;1691456;83;21033;-87
2022/08/02 04:43:27;;;;;;;9.70;8.88;;;;;;;18.92;92.67;96744.00;1698132;83;20983;-87
2022/08/02 04:45:53;;;;;;;9.48;8.68;;;;;;;18.86;92.50;96743.05;1694167;83;21020;-87
2022/08/02 04:48:20;;;;;;;9.63;8.83;;;;;;;18.87;92.75;96745.16;1704424;83;21369;-87
2022/08/02 04:50:45;;;;;;;9.00;8.20;;;;;;;18.89;92.64;96741.82;1688545;83;21099;-87
2022/08/02 04:53:11;;;;;;;9.03;8.18;;;;;;;18.94;92.93;96741.94;1686976;85;21059;-87
2022/08/02 04:55:37;;;;;;;8.90;7.92;;;;;;;19.00;92.65;96746.81;1697038;83;20997;-87
2022/08/02 04:58:02;;;;;;;9.45;8.55;;;;;;;19.03;92.84;96748.98;1687514;83;21001;-87
2022/08/02 05:00:28;;;;;;;9.08;8.28;;;;;;;19.08;92.97;96746.50;1691964;83;21396;-87
2022/08/02 05:02:57;;;;;;;10.18;9.28;;;;;;;19.14;93.22;96743.75;1692664;84;20963;-87
2022/08/02 05:05:23;;;;;;;9.85;8.25;;;;;;;19.20;93.00;96746.02;1692183;83;21399;-87
2022/08/02 05:07:49;;;;;;;9.70;8.45;;;;;;;19.18;92.96;96740.94;1691990;83;21355;-87
2022/08/02 05:10:15;;;;;;;8.75;7.85;;;;;;;19.13;92.73;96746.09;1697091;83;20960;-87
2022/08/02 05:12:40;;;;;;;8.43;7.67;;;;;;;19.11;92.63;96748.16;1696700;83;20948;-88
2022/08/02 05:15:08;;;;;;;8.95;8.15;;;;;;;19.09;92.32;96743.63;1691418;83;21510;-87
2022/08/02 05:17:33;;;;;;;7.53;6.75;;;;;;;19.09;92.35;96748.09;1690749;83;21555;-87
2022/08/02 05:19:59;;;;;;;7.25;6.55;;;;;;;19.11;92.47;96749.47;1692656;83;20995;-87
2022/08/02 05:22:25;;;;;;;7.37;6.62;;;;;;;19.14;92.55;96747.70;1704475;83;21028;-87
2022/08/02 05:24:50;;;;;;;7.22;6.53;;;;;;;19.17;92.06;96754.34;1692993;83;21031;-87
2022/08/02 05:27:16;;;;;;;6.83;6.22;;;;;;;19.17;92.29;96750.39;1690432;83;21007;-87
2022/08/02 05:29:42;;;;;;;7.35;6.65;;;;;;;19.18;92.20;96755.95;1700365;83;21034;-87
2022/08/02 05:32:07;;;;;;;7.28;6.58;;;;;;;19.13;91.97;96759.27;1687552;83;20948;-87
2022/08/02 05:34:33;;;;;;;6.50;5.90;;;;;;;19.12;92.20;96764.25;1694717;83;20991;-87
2022/08/02 05:36:59;;;;;;;7.65;6.70;;;;;;;19.10;92.30;96765.50;1683067;83;21110;-87
2022/08/02 05:39:25;;;;;;;6.62;6.03;;;;;;;19.08;92.22;96768.37;1682106;84;21108;-87
2022/08/02 05:41:51;;;;;;;7.10;5.58;;;;;;;19.09;92.37;96767.34;1684155;83;20961;-87
2022/08/02 05:44:16;;;;;;;7.42;5.62;;;;;;;19.12;92.40;96768.20;1686090;83;20990;-87
2022/08/02 05:46:42;;;;;;;5.83;4.90;;;;;;;19.13;92.46;96768.48;1681675;83;20968;-87
2022/08/02 05:49:08;;;;;;;5.62;4.60;;;;;;;19.15;92.30;96773.52;1689756;83;21489;-87
2022/08/02 05:51:51;;;;;;;4.62;4.22;;;;;;;19.14;92.62;96779.82;1683516;83;21079;-87
2022/08/02 05:54:24;;;;;;;5.03;4.53;;;;;;;19.18;93.29;96777.02;1683215;85;21104;-87
2022/08/02 05:57:04;;;;;;;5.33;4.83;;;;;;;19.19;93.33;96777.30;1689080;83;21068;-87
2022/08/02 05:59:50;;;;;;;5.17;4.67;;;;;;;19.19;92.61;96784.69;1681542;84;21347;-87
2022/08/02 06:02:42;;;;;;;4.53;4.12;;;;;;;19.20;92.07;96782.89;1680556;83;21039;-87
2022/08/02 06:05:15;;;;;;;6.22;4.28;;;;;;;19.22;91.93;96782.66;1676011;83;21060;-88
2022/08/02 06:07:43;;;;;;;5.60;4.62;;;;;;;19.23;92.11;96786.38;1681408;85;20980;-88
2022/08/02 06:10:12;;;;;;;5.58;4.80;;;;;;;19.31;92.30;96789.98;1686771;84;20964;-87
2022/08/02 06:13:07;;;;;;;5.75;5.25;;;;;;;19.35;92.39;96785.06;1683560;84;21040;-87
2022/08/02 06:15:33;;;;;;;5.67;4.85;;;;;;;19.37;91.94;96783.03;1680438;84;21007;-87
2022/08/02 06:18:00;;;;;;;5.50;5.00;;;;;;;19.40;91.99;96784.69;1682239;85;21083;-86
2022/08/02 06:20:26;;;;;;;4.85;4.35;;;;;;;19.47;91.47;96796.43;1691288;83;21049;-87
2022/08/02 06:22:52;;;;;;;5.22;4.72;;;;;;;19.44;91.55;96797.69;1691996;84;20966;-88
2022/08/02 06:25:17;;;;;;;5.10;4.60;;;;;;;19.39;90.93;96807.31;1691123;83;20965;-87
2022/08/02 06:27:43;;;;;;;4.78;4.37;;;;;;;19.35;91.49;96801.67;1660601;84;20999;-87
2022/08/02 06:30:10;;;;;;;6.80;5.42;;;;;;;19.37;90.75;96806.74;1646380;85;20964;-87
2022/08/02 06:32:36;;;;;;;6.33;5.72;;;;;;;19.39;90.95;96807.31;1646828;86;21015;-87
2022/08/02 06:35:03;;;;;;;6.72;6.03;;;;;;;19.36;90.57;96811.21;1641875;86;21323;-86
2022/08/02 06:37:58;;;;;;;6.22;5.72;;;;;;;19.37;90.52;96815.97;1655069;86;21016;-87
2022/08/02 06:40:36;;;;;;;7.67;5.30;;;;;;;19.37;90.61;96815.45;1637078;87;21096;-88
2022/08/02 06:43:17;;;;;;;6.17;5.30;;;;;;;19.43;90.89;96820.32;1654931;86;20996;-87
2022/08/02 06:45:50;;;;;;;6.70;5.97;;;;;;;19.52;91.15;96822.09;1655355;87;20968;-87
2022/08/02 06:48:11;;;;;;;6.05;5.30;;;;;;;19.60;90.37;96820.48;1656573;85;21042;-87
2022/08/02 06:50:40;;;;;;;6.45;4.92;;;;;;;19.67;91.03;96823.29;1655184;86;20979;-87
2022/08/02 06:53:07;;;;;;;6.28;5.67;;;;;;;19.78;91.06;96811.16;1655210;86;21298;-86
2022/08/02 06:55:33;;;;;;;7.10;5.83;;;;;;;19.79;90.02;96805.64;1655300;87;20988;-87
2022/08/02 06:57:59;;;;;;;7.40;6.70;;;;;;;19.86;89.94;96807.39;1650447;86;21024;-88
2022/08/02 07:00:25;;;;;;;6.47;5.28;;;;;;;19.87;89.02;96808.98;1652333;85;21302;-87
2022/08/02 07:02:51;;;;;;;6.05;5.40;;;;;;;19.89;90.12;96804.28;1650853;86;20979;-86
2022/08/02 07:05:16;;;;;;;7.28;6.62;;;;;;;19.94;90.49;96809.14;1653407;86;21031;-85
2022/08/02 07:07:42;;;;;;;7.53;6.90;;;;;;;19.88;89.58;96808.75;1653316;85;21538;-85
2022/08/02 07:10:08;;;;;;;7.90;7.00;;;;;;;19.81;89.30;96810.69;1654121;86;21003;-86
2022/08/02 07:12:34;;;;;;;8.20;7.50;;;;;;;19.74;88.75;96817.92;1653591;86;20995;-85
2022/08/02 07:15:01;;;;;;;7.78;7.10;;;;;;;19.75;89.15;96814.25;1657046;85;21019;-85
2022/08/02 07:17:27;;;;;;;8.53;7.72;;;;;;;19.84;90.27;96818.66;1652193;85;21059;-84
2022/08/02 07:19:53;;;;;;;8.70;7.95;;;;;;;19.84;88.59;96816.81;1651658;87;20964;-86
2022/08/02 07:22:21;;;;;;;9.18;8.28;;;;;;;19.76;88.81;96823.25;1654623;87;20944;-86
2022/08/02 07:24:49;;;;;;;8.50;7.70;;;;;;;19.75;89.13;96822.16;1660151;85;21465;-85
2022/08/02 07:27:15;;;;;;;9.55;8.63;;;;;;;19.79;89.57;96812.76;1653848;85;21449;-86
2022/08/02 07:29:40;;;;;;;9.63;8.93;;;;;;;19.89;89.92;96820.91;1651437;86;21495;-85
2022/08/02 07:32:06;;;;;;;8.70;7.90;;;;;;;19.95;89.15;96824.45;1653269;85;21066;-86
2022/08/02 07:34:32;;;;;;;8.08;7.37;;;;;;;20.01;89.19;96828.80;1653320;86;21384;-85
2022/08/02 07:36:58;;;;;;;7.28;6.60;;;;;;;20.09;89.57;96823.98;1655169;86;20988;-85
2022/08/02 07:39:24;;;;;;;8.00;7.40;;;;;;;20.20;90.37;96826.86;1654608;86;21067;-86
2022/08/02 07:41:54;;;;;;;8.60;7.90;;;;;;;20.28;89.70;96826.48;1656361;85;20975;-85
2022/08/02 07:44:18;;;;;;;8.83;8.13;;;;;;;20.30;89.12;96823.09;1655668;85;20995;-87
2022/08/02 07:46:45;;;;;;;7.92;7.30;;;;;;;20.30;89.01;96826.53;1658344;85;21445;-87
2022/08/02 07:49:17;;;;;;;8.73;6.87;;;;;;;20.29;88.85;96824.13;1656990;85;21120;-86
2022/08/02 07:51:45;;;;;;;8.45;6.47;;;;;;;20.30;88.40;96829.17;1653076;85;21011;-87
2022/08/02 07:54:11;;;;;;;6.83;6.25;;;;;;;20.35;87.96;96825.86;1656499;85;21361;-87
2022/08/02 07:56:37;;;;;;;6.28;5.70;;;;;;;20.42;87.72;96821.27;1657573;85;21031;-87
2022/08/02 07:59:03;;;;;;;6.53;6.03;;;;;;;20.50;87.50;96826.20;1654939;86;20971;-87
2022/08/02 08:01:31;;;;;;;6.17;5.58;;;;;;;20.52;87.20;96825.97;1656381;85;21090;-85
2022/08/02 08:03:57;;;;;;;6.17;5.67;;;;;;;20.55;88.10;96821.02;1659013;85;21449;-85
2022/08/02 08:06:22;;;;;;;5.42;5.03;;;;;;;20.59;87.61;96827.94;1656754;85;20967;-86
2022/08/02 08:08:48;;;;;;;5.25;4.83;;;;;;;20.60;86.46;96824.27;1631366;86;21000;-86
2022/08/02 08:11:14;;;;;;;6.50;5.90;;;;;;;20.66;85.88;96822.83;1654573;86;21374;-86
2022/08/02 08:13:40;;;;;;;5.35;4.95;;;;;;;20.79;86.80;96828.84;1655081;86;20960;-85
2022/08/02 08:16:06;;;;;;;5.15;4.65;;;;;;;20.86;87.23;96835.61;1654070;85;20979;-85
2022/08/02 08:18:31;;;;;;;5.60;5.10;;;;;;;20.90;87.70;96835.42;1654897;86;21076;-85
2022/08/02 08:20:59;;;;;;;6.75;5.40;;;;;;;20.94;86.95;96837.86;1655182;86;21047;-87
2022/08/02 08:23:25;;;;;;;5.35;4.85;;;;;;;21.02;86.44;96827.97;1654982;86;21011;-86
2022/08/02 08:25:50;;;;;;;5.40;5.00;;;;;;;21.08;85.71;96831.78;1655033;86;21053;-87
2022/08/02 08:28:16;;;;;;;5.87;5.37;;;;;;;21.10;85.46;96837.63;1654426;87;21011;-86
2022/08/02 08:30:42;;;;;;;5.33;4.83;;;;;;;20.97;84.87;96842.67;1657352;85;20991;-86
2022/08/02 08:33:08;;;;;;;5.33;4.67;;;;;;;20.88;85.09;96848.58;1662567;85;20970;-87
2022/08/02 08:35:34;;;;;;;4.78;4.37;;;;;;;20.78;84.89;96847.05;1667211;86;21035;-87
2022/08/02 08:38:00;;;;;;;5.22;4.72;;;;;;;20.70;83.99;96853.52;1666556;85;21087;-85
2022/08/02 08:40:25;;;;;;;5.30;4.08;;;;;;;20.65;83.68;96854.72;1668494;85;21465;-86
2022/08/02 08:42:51;;;;;;;5.75;4.22;;;;;;;20.60;83.56;96842.75;1664898;85;21042;-87
2022/08/02 08:45:17;;;;;;;5.22;4.83;;;;;;;20.76;84.37;96854.41;1666480;85;21072;-87
2022/08/02 08:47:44;;;;;;;4.83;4.35;;;;;;;20.86;84.00;96848.02;1666020;84;21038;-87
2022/08/02 08:50:20;;;;;;;4.60;4.17;;;;;;;20.90;84.05;96851.27;1666156;85;21425;-86
2022/08/02 08:53:06;;;;;;;5.12;4.62;;;;;;;20.97;85.07;96854.55;1665732;84;20983;-85
2022/08/02 11:21:27;;;;;;;8.33;7.58;;;;;;;23.14;71.23;96840.03;1706249;82;21491;-86
2022/08/02 11:23:54;;;;;;;9.25;8.33;;;;;;;23.05;70.85;96847.63;1716409;82;21123;-86
2022/08/02 11:26:34;;;;;;;8.33;7.62;;;;;;;23.17;71.64;96839.53;1706647;83;21052;-84
2022/08/02 11:29:02;;;;;;;8.93;8.23;;;;;;;23.41;71.72;96839.20;1700495;83;21058;-87
2022/08/02 11:31:28;;;;;;;8.08;7.33;;;;;;;23.65;71.33;96836.01;1716077;83;21391;-87
2022/08/02 11:33:54;;;;;;;10.20;8.80;;;;;;;23.87;72.05;96843.86;1713029;83;20968;-86
2022/08/02 11:36:20;;;;;;;9.23;8.55;;;;;;;23.93;69.59;96843.38;1717592;83;22189;-86
2022/08/02 11:38:46;;;;;;;9.15;8.10;;;;;;;23.77;69.18;96837.70;1698811;83;21003;-84
2022/08/02 11:41:21;;;;;;;8.55;7.80;;;;;;;23.59;69.19;96842.84;1718397;83;21062;-86
2022/08/02 11:43:54;;;;;;;7.95;7.03;;;;;;;23.42;68.80;96843.45;1712953;83;21477;-89
2022/08/02 11:46:19;;;;;;;7.20;6.60;;;;;;;23.48;70.83;96837.16;1700179;83;21536;-85
2022/08/02 11:48:45;;;;;;;8.63;7.85;;;;;;;23.74;68.84;96840.30;1702739;84;20977;-85
2022/08/02 11:51:15;;;;;;;8.88;8.18;;;;;;;23.83;68.46;96841.45;1702011;84;21033;-85
2022/08/02 11:53:50;;;;;;;8.73;7.83;;;;;;;23.80;68.03;96841.16;1699004;84;20963;-85
2022/08/02 11:56:17;;;;;;;7.72;7.10;;;;;;;23.70;68.46;96842.40;1702122;84;20968;-87
2022/08/02 11:59:09;;;;;;;8.08;7.45;;;;;;;23.58;70.35;96845.22;1689942;83;21029;-84
2022/08/02 12:01:37;;;;;;;7.92;7.28;;;;;;;23.56;71.02;96841.98;1704190;84;21387;-86
2022/08/02 12:04:04;;;;;;;7.62;6.95;;;;;;;23.51;71.32;96841.95;1701899;82;21339;-83
2022/08/02 12:06:31;;;;;;;7.25;6.72;;;;;;;23.41;71.89;96841.86;1701723;81;21381;-84
2022/08/02 12:09:08;;;;;;;7.85;7.10;;;;;;;23.30;71.61;96841.78;1705751;83;21086;-84
2022/08/02 12:11:37;;;;;;;8.33;7.53;;;;;;;23.17;71.76;96831.58;1706666;84;21024;-85
2022/08/02 12:14:04;;;;;;;8.20;7.37;;;;;;;23.03;70.27;96837.00;1702842;84;20993;-85
2022/08/02 12:19:22;;;;;;;6.90;6.20;;;;;;;22.92;69.68;96834.75;1713759;83;21112;-84
2022/08/02 12:22:15;;;;;;;7.80;7.03;;;;;;;23.02;69.57;96834.08;1711207;83;21462;-86
2022/08/02 12:24:45;;;;;;;7.28;6.58;;;;;;;23.34;69.62;96834.92;1720448;82;21013;-87
2022/08/02 12:27:35;;;;;;;6.75;6.25;;;;;;;23.60;69.74;96836.50;1701426;83;21073;-85
2022/08/02 12:30:12;;;;;;;7.15;6.55;;;;;;;23.75;69.31;96831.29;1719562;83;20989;-89
2022/08/02 12:32:38;;;;;;;7.45;6.85;;;;;;;23.60;67.69;96831.20;1717988;83;21404;-89
2022/08/02 12:35:11;;;;;;;5.85;5.37;;;;;;;23.46;67.88;96824.69;1692874;83;21088;-87
2022/08/02 12:37:40;;;;;;;7.40;5.60;;;;;;;23.53;68.73;96827.91;1707238;83;21017;-87
2022/08/02 12:40:31;;;;;;;6.00;5.60;;;;;;;23.42;66.98;96831.52;1720779;83;21013;-84
2022/08/02 12:43:02;;;;;;;6.72;6.08;;;;;;;23.34;68.89;96825.64;1703790;83;20942;-84
2022/08/02 12:45:31;;;;;;;6.10;5.50;;;;;;;23.26;69.81;96825.28;1714641;83;21042;-84
2022/08/02 12:47:58;;;;;;;6.15;5.10;;;;;;;23.13;70.33;96834.46;1714908;83;21078;-84
2022/08/02 12:50:33;;;;;;;5.58;5.10;;;;;;;23.01;71.45;96834.60;1716914;82;21091;-87
2022/08/02 12:53:11;;;;;;;6.42;4.97;;;;;;;22.93;69.73;96835.56;1727237;82;20994;-87
2022/08/02 12:55:56;;;;;;;5.70;5.20;;;;;;;22.87;71.49;96832.06;1693992;84;21304;-86
2022/08/02 12:58:22;;;;;;;5.80;5.22;;;;;;;22.85;71.43;96828.06;1703280;84;21055;-84
2022/08/02 13:00:57;;;;;;;7.03;5.70;;;;;;;22.97;72.33;96826.08;1696069;83;21399;-84
2022/08/02 13:03:23;;;;;;;5.67;5.17;;;;;;;23.32;71.46;96826.95;1708364;83;20941;-84
2022/08/02 13:05:49;;;;;;;6.78;5.08;;;;;;;23.76;70.84;96820.98;1655477;87;21359;-85
2022/08/02 13:08:15;;;;;;;6.90;5.22;;;;;;;23.89;68.36;96815.73;1704507;83;21044;-84
2022/08/02 13:10:41;;;;;;;4.80;4.40;;;;;;;24.07;69.97;96815.31;1686560;84;20996;-84
2022/08/02 13:13:07;;;;;;;5.53;5.08;;;;;;;24.23;69.33;96806.38;1683138;84;20973;-84
2022/08/02 13:15:33;;;;;;;5.87;4.70;;;;;;;24.15;68.45;96818.82;1701236;84;21371;-84
2022/08/02 13:18:00;;;;;;;5.62;4.45;;;;;;;24.02;68.41;96815.29;1682732;85;21037;-85
2022/08/02 13:20:27;;;;;;;5.28;4.87;;;;;;;23.90;68.58;96823.44;1708355;82;22139;-85
2022/08/02 13:22:53;;;;;;;5.33;4.83;;;;;;;23.75;67.53;96827.31;1711982;84;20954;-84
2022/08/02 13:25:21;;;;;;;5.37;4.92;;;;;;;23.62;68.99;96820.61;1701350;83;21433;-85
2022/08/02 13:27:49;;;;;;;5.87;5.30;;;;;;;23.58;69.04;96825.32;1701588;83;21093;-84
2022/08/02 13:30:15;;;;;;;5.47;5.05;;;;;;;23.53;70.10;96818.10;1703336;83;21449;-87
2022/08/02 13:32:41;;;;;;;7.55;4.97;;;;;;;23.53;70.73;96818.62;1694483;83;20938;-84
2022/08/02 13:35:08;;;;;;;5.83;5.12;;;;;;;23.75;71.73;96810.06;1702090;84;20977;-84
2022/08/02 13:37:35;;;;;;;5.08;4.58;;;;;;;23.76;71.34;96810.36;1688969;84;20973;-84
2022/08/02 13:40:01;;;;;;;5.10;4.60;;;;;;;23.71;71.39;96814.28;1689268;84;21912;-87
2022/08/02 13:42:27;;;;;;;4.90;4.37;;;;;;;23.67;71.00;96809.22;1684528;84;21005;-84
2022/08/02 13:44:52;;;;;;;4.40;4.00;;;;;;;23.62;71.90;96815.30;1689097;83;21008;-86
2022/08/02 13:47:18;;;;;;;9.05;5.00;;;;;;;23.56;72.94;96810.96;1700250;83;21061;-85
2022/08/02 13:49:44;;;;;;;6.62;4.80;;;;;;;23.45;73.50;96813.80;1708149;83;21101;-83
2022/08/02 13:52:10;;;;;;;5.05;4.10;;;;;;;23.35;72.36;96793.30;1712376;84;21014;-85
2022/08/02 13:54:36;;;;;;;4.60;3.70;;;;;;;23.77;70.50;96815.14;1703093;83;21085;-85
2022/08/02 13:57:01;;;;;;;4.53;3.87;;;;;;;24.04;68.23;96803.09;1699563;83;20915;-86
2022/08/02 13:59:27;;;;;;;3.42;3.12;;;;;;;24.08;68.88;96806.32;1706281;83;20962;-83
2022/08/02 14:01:55;;;;;;;3.42;3.00;;;;;;;24.04;68.46;96809.20;1706063;83;21350;-83
2022/08/02 14:04:22;;;;;;;3.22;2.90;;;;;;;24.23;66.31;96810.36;1701219;84;20962;-84
2022/08/02 14:06:48;;;;;;;3.72;3.37;;;;;;;24.48;65.29;96805.73;1704457;83;20988;-86
2022/08/02 14:09:13;;;;;;;4.45;3.62;;;;;;;24.43;64.14;96815.02;1705135;83;20989;-86
2022/08/02 14:11:39;;;;;;;3.80;3.15;;;;;;;24.27;63.72;96799.24;1693960;84;21004;-84